Muckle Holm, United Kingdom
Current Conditions -  °F | °C
As of 9:20 PM on Thursday 23 Oct 2014 (Local Time) from EGPM Reporting Station
Clear Clear  
Wind Chill: 52°   Ceiling: Unl
Heat Index: 52°   Visibility: 6mi
Dew Point: 50°   Wind: 18mph
Humidity: 94%   Direction: 190°S
Pressure: 29.41"   Gusts: NA
Location:  60.58°N, 1.27°W
Report Text: EGPM 232020Z AUTO 19016KT 9999 NCD 11/10 Q0996
Loading
Personal Weather Stations






























Interactive Weather Map
Tropical Storm Tracking
New forecast layout! Learn more

10-Day Weather Forecast

Advertisements
Track Severe Weather on mobile